59°F Temp
46°F Dewpoint
63% Humidity
Temperature
13 MPH
21 KM/H
11 KTS
330°
North North
West

Wind Speed
Partly Cloudy
Conditions
Pressure 1014.22 (hPa) - 29.95 (in)
Visibility 10.0 (mi) - 16.1 (km)

Current Conditions
KSJC
Location 9(mi)
Metar :KSJC 282353Z 33011KT 10SM FEW040 FEW070 FEW180 15/08 A2995 RMK AO2 SLP143 T01500078 10167 20100 55010
Sat 28th January 15:53 pm

Airport
  Metar Aviation API Data Provided by https://www.checkwx.com/ PHP scripts by weather34.com ©2023